Terminal Aerodrome Forecast
Issued by NWS Wilmington, OH

Home | Current Version | Previous Version | Text Only | Print | Product List | Glossary On
Versions: 1 2 3 4 5 6 7 8 9 10 11 12 13 14 15 16 17 18 19 20 21 22 23 24 25 26 27
176
FTUS41 KILN 241125
TAFCVG
TAF
KCVG 241125Z 2412/2518 32004KT P6SM SCT120 BKN250
     FM241400 26007KT P6SM SCT030 OVC250
     FM250100 VRB03KT P6SM SCT040 BKN250
     FM251300 25007KT P6SM SCT040 BKN250=

USA.gov is the U.S. government's official web portal to all federal, state and local government web resources and services.